Latest Weather Observations for Renmark Airport

IDS60801

Issued at 6:05 pm CDT Sunday 26 October 2014 (issued every 30 minutes, with the page automatically refreshed every 10 minutes)

About weather observations | Map of weather stations | Latest weather observations for SA | Other Formats
Station Details ID: 024048 Name: RENMARK AERO Lat: -34.20 Lon: 140.68 Height: 31.5 m
Data from the previous 72 hours. | See also: Recent months at Renmark Airport
Date/Time
CDT
Temp
°C
App
Temp
°C
Dew
Point
Rel
Hum
%
Delta-T
°C
Wind Press
QNH
hPa
Press
MSL
hPa
Rain
since 9 am
mm
Dir
 
Spd
km/h
Gust
km/h
Spd
kts
Gust
kts
26/06:00pm 25.3 24.0 12.5 45 7.4 ESE 11 15 6 8 1008.8 1008.8 0.0
26/05:30pm 25.0 22.8 12.2 44 7.3 ESE 15 17 8 9 1008.7 1008.7 0.0
26/05:00pm 25.3 23.2 12.5 45 7.4 SSE 15 19 8 10 1009.1 1009.1 0.0
26/04:30pm 25.1 23.5 12.7 46 7.2 SE 13 15 7 8 1008.8 1008.8 0.0
26/04:00pm 24.4 23.2 12.7 48 6.7 NNE 11 17 6 9 1009.0 1009.0 0.0
26/03:30pm 24.1 20.0 12.7 49 6.6 N 26 35 14 19 1009.6 1009.6 0.0
26/03:00pm 23.8 22.4 13.4 52 6.1 NNW 13 20 7 11 1010.8 1010.8 0.0
26/02:30pm 21.6 19.0 13.8 61 4.5 N 20 28 11 15 1010.5 1010.5 0.0
26/02:00pm 20.7 17.7 13.6 64 4.1 N 22 30 12 16 1011.8 1011.8 0.0
26/01:30pm 19.4 17.1 13.1 67 3.6 N 17 22 9 12 1012.2 1012.2 0.0
26/01:00pm 19.1 18.3 12.8 67 3.5 ENE 9 15 5 8 1012.6 1012.6 0.0
26/12:30pm 18.4 16.0 12.6 69 3.2 N 17 20 9 11 1013.5 1013.5 0.0
26/12:00pm 16.9 14.5 12.8 77 2.3 NNE 17 20 9 11 1013.8 1013.8 0.0
26/11:30am 16.4 14.6 13.3 82 1.7 NNE 15 17 8 9 1014.6 1014.6 0.0
26/11:00am 16.9 16.9 11.0 68 3.2 W 2 11 1 6 1015.6 1015.5 0.0
26/10:30am 16.8 16.7 10.9 68 3.2 SSW 2 9 1 5 1015.3 1015.3 0.0
26/10:00am 16.7 15.7 11.0 69 3.1 SW 7 9 4 5 1015.8 1015.7 0.0
26/09:30am 16.8 14.9 10.6 67 3.3 WSW 11 15 6 8 1016.3 1016.2 0.0
26/09:00am 16.3 13.0 10.8 70 2.9 WSW 19 24 10 13 1016.8 1016.7 0.0
26/08:39am 16.5 12.7 11.0 70 2.9 WSW 22 32 12 17 1017.1 1017.0 0.0
26/08:30am 15.7 14.7 10.9 73 2.6 SSW 7 13 4 7 1014.7 1014.7 0.0
26/08:00am 14.9 13.1 10.9 77 2.1 S 11 13 6 7 1014.1 1014.1 0.0
26/07:30am 13.7 12.2 10.7 82 1.6 S 9 13 5 7 1013.7 1013.7 0.0
26/07:00am 11.8 11.5 10.0 89 0.9 SSW 2 6 1 3 1013.7 1013.7 0.0
26/06:30am 10.3 8.9 9.4 94 0.4 SW 7 7 4 4 1013.5 1013.5 0.0
26/06:00am 10.3 8.8 9.2 93 0.5 W 7 9 4 5 1013.5 1013.5 0.0
26/05:30am 10.6 9.4 9.4 92 0.6 W 6 7 3 4 1013.3 1013.3 0.0
26/05:00am 10.9 9.5 9.0 88 0.9 WSW 6 9 3 5 1013.5 1013.5 0.0
26/04:30am 11.3 9.4 9.0 86 1.1 W 9 9 5 5 1013.7 1013.7 0.0
26/04:00am 11.8 9.6 9.5 86 1.2 WSW 11 13 6 7 1013.4 1013.4 0.0
26/03:30am 12.1 10.5 8.9 81 1.6 W 7 11 4 6 1013.1 1013.1 0.0
26/03:00am 13.0 11.5 9.3 78 1.9 SW 7 11 4 6 1013.2 1013.2 0.0
26/02:30am 13.2 10.9 9.1 76 2.1 WSW 11 11 6 6 1013.5 1013.5 0.0
26/02:00am 13.9 12.0 9.1 73 2.4 SW 9 11 5 6 1013.8 1013.8 0.0
26/01:30am 14.6 13.1 9.0 69 2.9 SSW 7 11 4 6 1014.0 1014.0 0.0
26/01:00am 15.2 13.5 8.4 64 3.4 WSW 7 11 4 6 1014.5 1014.5 0.0
26/12:30am 16.7 14.8 8.9 60 4.0 SW 9 13 5 7 1015.1 1015.1 0.0
26/12:00am 18.0 15.7 9.1 56 4.6 SW 11 17 6 9 1015.2 1015.2 0.0
 
Date/Time
CDT
Temp
°C
App
Temp
°C
Dew
Point
Rel
Hum
%
Delta-T
°C
Wind Press
QNH
hPa
Press
MSL
hPa
Rain
since 9 am
mm
Dir
 
Spd
km/h
Gust
km/h
Spd
kts
Gust
kts
25/11:30pm 18.6 16.2 8.6 52 5.2 SSW 11 15 6 8 1015.2 1015.2 0.0
25/11:00pm 19.7 16.2 8.7 49 5.8 SSW 17 22 9 12 1015.1 1015.1 0.0
25/10:30pm 20.7 17.2 8.7 46 6.3 SSW 17 22 9 12 1015.0 1015.0 0.0
25/10:00pm 21.8 18.3 8.7 43 6.9 SSW 17 22 9 12 1015.0 1015.0 0.0
25/09:30pm 22.7 18.7 8.4 40 7.6 SSW 19 28 10 15 1015.2 1015.2 0.0
25/09:00pm 23.5 19.3 7.6 36 8.3 SSW 19 28 10 15 1014.7 1014.7 0.0
25/08:30pm 24.7 20.4 6.9 32 9.3 SSW 19 26 10 14 1014.2 1014.2 0.0
25/08:00pm 25.8 21.7 6.4 29 10.1 S 17 24 9 13 1013.6 1013.6 0.0
25/07:30pm 27.2 22.7 6.0 26 11.0 S 19 24 10 13 1013.2 1013.2 0.0
25/07:00pm 28.5 23.3 5.4 23 12.0 S 22 28 12 15 1012.9 1012.9 0.0
25/06:30pm 30.4 25.9 4.2 19 13.5 SSW 17 20 9 11 1012.5 1012.5 0.0
25/06:00pm 31.2 26.1 4.1 18 14.0 SSW 20 35 11 19 1012.4 1012.4 0.0
25/05:30pm 31.3 25.3 3.4 17 14.3 S 24 30 13 16 1012.2 1012.2 0.0
25/05:00pm 31.3 25.7 3.4 17 14.3 SSW 22 35 12 19 1012.2 1012.2 0.0
25/04:30pm 31.7 26.4 2.8 16 14.7 SW 20 32 11 17 1012.3 1012.3 0.0
25/04:00pm 32.2 26.9 3.2 16 14.8 SSW 20 26 11 14 1012.3 1012.3 0.0
25/03:30pm 32.1 26.3 2.2 15 15.0 WSW 22 39 12 21 1012.4 1012.4 0.0
25/03:00pm 32.3 26.5 4.2 17 14.6 W 24 37 13 20 1012.8 1012.8 0.0
25/02:30pm 31.3 25.8 4.2 18 14.0 WSW 22 33 12 18 1013.0 1013.0 0.0
25/02:00pm 31.4 26.5 4.2 18 14.1 WSW 19 30 10 16 1013.2 1013.2 0.0
25/01:30pm 30.2 25.3 4.0 19 13.4 SW 19 26 10 14 1013.4 1013.4 0.0
25/01:00pm 29.6 25.2 5.0 21 12.8 SW 17 24 9 13 1013.7 1013.7 0.0
25/12:30pm 28.3 23.2 5.8 24 11.8 SW 22 28 12 15 1014.2 1014.2 0.0
25/12:00pm 27.5 22.9 6.3 26 11.1 SW 20 30 11 16 1014.7 1014.7 0.0
25/11:30am 27.3 24.2 8.7 31 10.2 SW 15 24 8 13 1015.0 1015.0 0.0
25/11:00am 24.9 21.3 10.0 39 8.2 SW 19 30 10 16 1015.5 1015.4 0.0
25/10:30am 23.5 20.5 10.6 44 7.1 SSW 17 24 9 13 1015.7 1015.6 0.0
25/10:00am 22.2 19.2 10.7 48 6.3 SW 17 22 9 12 1015.9 1015.8 0.0
25/09:30am 20.4 17.0 11.1 55 5.1 SW 20 28 11 15 1016.2 1016.1 0.0
25/09:00am 19.6 16.4 11.1 58 4.6 SW 19 26 10 14 1016.0 1015.9 0.0
25/08:30am 18.3 15.4 11.1 63 3.9 SSW 17 22 9 12 1015.6 1015.5 0.0
25/08:00am 17.1 13.9 11.2 68 3.2 SW 19 24 10 13 1015.9 1015.8 0.0
25/07:30am 16.1 13.3 11.3 73 2.6 SSW 17 22 9 12 1015.2 1015.2 0.0
25/07:00am 15.1 12.7 11.3 78 2.0 SW 15 20 8 11 1014.9 1014.9 0.0
25/06:30am 14.8 11.8 10.6 76 2.2 WSW 17 20 9 11 1014.9 1014.9 0.0
25/06:00am 15.5 14.3 10.3 71 2.7 S 7 11 4 6 1013.7 1013.7 0.0
25/05:30am 16.0 13.9 9.9 67 3.2 WSW 11 13 6 7 1014.1 1014.1 0.0
25/05:00am 16.7 14.3 9.9 64 3.6 SSW 13 17 7 9 1014.0 1014.0 0.0
25/04:30am 17.1 14.9 9.5 61 4.0 S 11 17 6 9 1013.5 1013.5 0.0
25/04:00am 17.6 14.6 9.2 58 4.4 S 15 20 8 11 1013.3 1013.3 0.0
25/03:30am 18.3 15.2 8.8 54 4.9 S 15 24 8 13 1013.2 1013.2 0.0
25/03:00am 19.0 16.1 8.1 49 5.6 S 13 19 7 10 1013.4 1013.4 0.0
25/02:30am 19.6 16.3 8.0 47 6.0 S 15 20 8 11 1013.3 1013.3 0.0
25/02:00am 20.1 17.3 6.8 42 6.7 S 11 15 6 8 1013.6 1013.6 0.0
25/01:30am 20.6 17.2 5.8 38 7.4 SSW 13 17 7 9 1013.9 1013.9 0.0
25/01:00am 21.6 18.1 5.5 35 8.0 S 13 19 7 10 1013.9 1013.9 0.0
25/12:30am 22.5 18.0 4.1 30 9.0 S 17 24 9 13 1013.6 1013.6 0.0
25/12:00am 23.0 18.8 4.0 29 9.3 S 15 19 8 10 1013.7 1013.7 0.0
 
Date/Time
CDT
Temp
°C
App
Temp
°C
Dew
Point
Rel
Hum
%
Delta-T
°C
Wind Press
QNH
hPa
Press
MSL
hPa
Rain
since 9 am
mm
Dir
 
Spd
km/h
Gust
km/h
Spd
kts
Gust
kts
24/11:30pm 23.9 20.2 4.3 28 9.7 S 13 20 7 11 1013.9 1013.9 0.0
24/11:00pm 25.4 20.2 3.4 24 10.8 SSE 20 30 11 16 1013.6 1013.6 0.0
24/10:30pm 25.9 20.4 3.8 24 11.0 S 22 30 12 16 1013.6 1013.6 0.0
24/10:00pm 27.8 22.5 2.8 20 12.4 SSE 20 24 11 13 1013.2 1013.2 0.0
24/09:30pm 23.9 22.3 2.7 25 10.2 CALM 0 0 0 0 1012.6 1012.6 0.0
24/09:00pm 23.9 22.2 2.1 24 10.4 CALM 0 0 0 0 1012.5 1012.5 0.0
24/08:30pm 26.7 25.0 1.9 20 12.0 CALM 0 0 0 0 1011.8 1011.8 0.0
24/08:00pm 29.1 27.4 1.6 17 13.4 CALM 0 0 0 0 1011.5 1011.5 0.0
24/07:30pm 31.4 28.9 1.7 15 14.8 S 4 7 2 4 1011.3 1011.3 0.0
24/07:00pm 33.9 30.3 0.5 12 16.5 S 9 13 5 7 1011.0 1011.0 0.0
24/06:30pm 35.6 31.2 0.6 11 17.6 SW 13 17 7 9 1010.9 1010.9 0.0
24/06:00pm 36.1 31.4 1.0 11 17.8 WSW 15 26 8 14 1010.9 1010.9 0.0
24/05:30pm 35.7 30.0 -0.6 10 17.9 WSW 19 28 10 15 1010.9 1010.9 0.0
24/05:00pm 36.2 30.0 -0.2 10 18.1 W 22 37 12 20 1010.8 1010.8 0.0
24/04:30pm 36.3 31.8 -0.2 10 18.1 W 13 24 7 13 1011.0 1011.0 0.0
24/04:00pm 36.0 30.3 -0.4 10 18.0 W 19 32 10 17 1011.3 1011.3 0.0
24/03:30pm 35.8 31.7 -0.5 10 17.9 WSW 11 13 6 7 1011.6 1011.6 0.0
24/03:00pm 36.0 30.2 -0.4 10 18.0 WSW 20 30 11 16 1011.8 1011.8 0.0
24/02:30pm 35.1 29.7 -1.1 10 17.6 SSW 17 20 9 11 1012.2 1012.2 0.0
24/02:00pm 35.4 29.1 -0.8 10 17.7 W 22 30 12 16 1012.5 1012.5 0.0
24/01:30pm 34.5 28.5 -1.5 10 17.3 W 20 30 11 16 1012.9 1012.9 0.0
24/01:00pm 34.1 28.8 1.8 13 16.3 W 19 28 10 15 1013.1 1013.1 0.0
24/12:30pm 32.4 28.5 3.4 16 14.9 W 13 22 7 12 1013.5 1013.5 0.0
24/12:00pm 31.3 27.0 3.4 17 14.2 W 15 24 8 13 1013.8 1013.8 0.0
24/11:30am 30.2 26.1 6.1 22 12.8 W 17 26 9 14 1014.1 1014.1 0.0
24/11:00am 28.4 24.6 7.6 27 11.2 W 17 24 9 13 1014.7 1014.7 0.0
24/10:30am 27.5 24.3 8.4 30 10.4 NW 15 22 8 12 1014.5 1014.5 0.0
24/10:00am 25.8 23.6 9.2 35 9.1 NNW 11 17 6 9 1014.5 1014.5 0.0
24/09:30am 23.6 20.9 10.3 43 7.3 NW 15 20 8 11 1014.6 1014.6 0.0
24/09:00am 20.7 19.0 11.3 55 5.2 WNW 11 17 6 9 1014.7 1014.7 0.0
24/08:30am 17.9 16.7 11.5 66 3.5 NNW 9 15 5 8 1014.5 1014.5 0.0
24/08:00am 16.2 15.4 11.2 72 2.7 NW 6 7 3 4 1014.2 1014.2 0.0
24/07:30am 14.9 14.4 10.9 77 2.1 WNW 4 7 2 4 1014.2 1014.2 0.0
24/07:00am 12.8 11.7 10.0 83 1.4 W 6 9 3 5 1013.8 1013.8 0.0
24/06:30am 12.0 10.7 10.1 88 1.0 W 7 9 4 5 1013.6 1013.6 0.0
24/06:00am 11.4 9.4 8.8 84 1.3 W 9 11 5 6 1013.6 1013.6 0.0
24/05:30am 12.2 11.9 8.5 78 1.8 CALM 0 0 0 0 1012.6 1012.6 0.0
24/05:00am 12.4 10.6 9.4 82 1.5 E 9 13 5 7 1012.3 1012.3 0.0
24/04:30am 13.0 12.7 10.2 83 1.4 SW 2 6 1 3 1013.0 1013.0 0.0
24/04:00am 12.9 11.7 9.4 79 1.8 WSW 6 9 3 5 1013.2 1013.2 0.0
24/03:30am 14.2 14.3 10.0 76 2.2 CALM 0 0 0 0 1013.2 1013.2 0.0
24/03:00am 14.5 13.3 9.7 73 2.5 W 6 7 3 4 1013.4 1013.4 0.0
24/02:30am 15.3 13.7 10.1 71 2.7 W 9 11 5 6 1013.5 1013.5 0.0
24/02:00am 16.2 15.1 10.5 69 3.0 SW 7 9 4 5 1013.4 1013.4 0.0
24/01:30am 16.3 15.1 10.2 67 3.2 WSW 7 11 4 6 1013.7 1013.7 0.0
24/01:00am 17.2 15.7 10.6 65 3.5 WSW 9 11 5 6 1014.0 1014.0 0.0
24/12:30am 18.2 16.0 10.8 62 4.0 WSW 13 17 7 9 1014.3 1014.3 0.0
24/12:00am 19.3 17.5 10.8 58 4.6 WSW 11 17 6 9 1014.4 1014.4 0.0
 
Date/Time
CDT
Temp
°C
App
Temp
°C
Dew
Point
Rel
Hum
%
Delta-T
°C
Wind Press
QNH
hPa
Press
MSL
hPa
Rain
since 9 am
mm
Dir
 
Spd
km/h
Gust
km/h
Spd
kts
Gust
kts
23/11:30pm 20.3 18.8 10.7 54 5.2 WSW 9 13 5 7 1014.4 1014.4 0.0
23/11:00pm 21.6 19.8 10.7 50 6.0 SW 11 19 6 10 1014.5 1014.5 0.0
23/10:30pm 22.9 19.9 10.7 46 6.7 SSW 17 22 9 12 1014.3 1014.3 0.0
23/10:00pm 23.8 20.1 10.1 42 7.5 SSW 20 26 11 14 1014.1 1014.1 0.0
23/09:30pm 25.0 21.2 8.9 36 8.7 SSW 19 24 10 13 1013.8 1013.8 0.0
23/09:00pm 26.0 22.2 7.6 31 9.8 SSW 17 24 9 13 1013.4 1013.4 0.0
23/08:30pm 26.8 23.1 6.2 27 10.7 SSW 15 20 8 11 1013.1 1013.1 0.0
23/08:00pm 26.6 23.5 5.5 26 10.9 SSW 11 13 6 7 1012.6 1012.6 0.0
23/07:30pm 27.7 25.3 5.3 24 11.6 SW 7 11 4 6 1012.3 1012.3 0.0
23/07:00pm 29.4 26.1 4.8 21 12.7 WSW 11 17 6 9 1012.1 1012.1 0.0
23/06:30pm 30.4 26.7 4.2 19 13.5 WSW 13 19 7 10 1012.0 1012.0 0.0

Other Formats:

Comma delimited format used in spreadsheet applications
http://www.bom.gov.au/fwo/IDS60801/IDS60801.95687.axf

JavaScript Object Notation format (JSON) in row-major order
http://www.bom.gov.au/fwo/IDS60801/IDS60801.95687.json